Time;durP1;ratioP1;P1;durP2;ratioP2;P2;SDS_P1;SDS_P2;PMS_P1;PMS_P2;Temp;Humidity;BMP_temperature;BMP_pressure;BME280_temperature;BME280_humidity;BME280_pressure;Samples;Min_cycle;Max_cycle;Signal;HPM_P1;HPM_P2
2022/04/14 07:14:10;;;;;;;17.00;7.20;;;13.90;98.90;;;;;;6233603;22;20024;-78
2022/04/14 07:16:36;;;;;;;14.32;6.65;;;14.00;99.20;;;;;;6245821;23;20059;-79
2022/04/14 07:19:01;;;;;;;17.17;6.80;;;14.00;99.00;;;;;;6245753;23;20355;-78
2022/04/14 07:21:27;;;;;;;20.83;7.63;;;14.00;99.90;;;;;;6245687;23;20003;-78
2022/04/14 07:23:53;;;;;;;17.92;7.32;;;14.20;99.70;;;;;;6219080;23;20087;-78
2022/04/14 07:26:18;;;;;;;24.42;8.45;;;14.30;99.90;;;;;;6245832;23;20007;-78
2022/04/14 07:28:44;;;;;;;18.20;7.80;;;14.40;99.70;;;;;;6218934;23;20000;-78
2022/04/14 07:31:10;;;;;;;21.35;8.75;;;14.50;99.10;;;;;;6218914;23;20012;-78
2022/04/14 07:33:36;;;;;;;21.00;8.15;;;14.60;99.70;;;;;;6245567;23;20309;-78
2022/04/14 07:36:03;;;;;;;22.95;7.75;;;14.70;99.40;;;;;;6245384;23;20004;-78
2022/04/14 07:38:28;;;;;;;21.45;7.57;;;14.80;98.20;;;;;;6245436;23;20309;-78
2022/04/14 07:40:56;;;;;;;27.30;8.52;;;15.00;97.60;;;;;;6245655;23;19996;-78
2022/04/14 07:43:22;;;;;;;28.55;8.88;;;15.10;96.90;;;;;;6245676;23;20031;-79
2022/04/14 07:45:48;;;;;;;21.08;7.18;;;15.30;96.20;;;;;;6245733;23;20034;-78
2022/04/14 07:48:16;;;;;;;24.10;7.80;;;15.50;95.50;;;;;;6245792;23;20004;-81
2022/04/14 07:50:42;;;;;;;24.92;8.60;;;15.40;95.50;;;;;;6218536;23;20011;-78
2022/04/14 07:53:08;;;;;;;22.00;7.97;;;15.60;95.30;;;;;;6243671;23;20339;-78
2022/04/14 07:55:35;;;;;;;24.40;8.02;;;15.60;95.40;;;;;;6245437;22;20071;-78
2022/04/14 07:58:05;;;;;;;20.42;8.23;;;15.60;96.00;;;;;;6245520;22;20051;-78
2022/04/14 08:00:31;;;;;;;33.42;8.45;;;15.70;95.70;;;;;;6245386;22;20054;-78
2022/04/14 08:03:02;;;;;;;28.67;8.95;;;15.70;96.30;;;;;;6245398;22;20000;-78
2022/04/14 08:05:33;;;;;;;22.05;8.68;;;15.80;96.10;;;;;;6245310;22;20007;-78
2022/04/14 08:08:03;;;;;;;24.48;8.38;;;15.90;95.70;;;;;;6245239;22;20004;-77
2022/04/14 08:10:30;;;;;;;24.58;9.48;;;15.80;96.50;;;;;;6245673;22;20000;-77
2022/04/14 08:12:55;;;;;;;25.70;8.88;;;16.00;96.60;;;;;;6243807;23;20019;-78
2022/04/14 08:15:22;;;;;;;31.98;9.32;;;15.90;95.80;;;;;;6244915;22;20012;-77
2022/04/14 08:17:47;;;;;;;23.60;8.88;;;15.90;96.00;;;;;;6245252;22;20058;-78
2022/04/14 08:23:22;;;;;;;26.08;9.20;;;16.10;95.00;;;;;;6239801;22;20439;-78
2022/04/14 08:25:50;;;;;;;27.48;9.60;;;16.20;93.70;;;;;;6218591;23;20035;-77
2022/04/14 08:28:17;;;;;;;27.02;9.60;;;16.10;94.80;;;;;;6245023;23;20069;-78
2022/04/14 08:30:44;;;;;;;27.20;8.63;;;16.20;94.40;;;;;;6245010;23;20085;-78
2022/04/14 08:33:12;;;;;;;19.00;7.93;;;16.40;93.40;;;;;;6218101;23;20079;-78
2022/04/14 08:35:38;;;;;;;22.38;8.23;;;16.50;92.50;;;;;;6244925;23;20074;-78
2022/04/14 08:38:07;;;;;;;26.00;8.77;;;16.60;92.10;;;;;;6218107;23;20081;-78
2022/04/14 08:40:36;;;;;;;21.20;8.75;;;16.50;92.70;;;;;;6244850;23;20003;-77
2022/04/14 08:43:09;;;;;;;28.10;8.27;;;16.50;94.10;;;;;;6244913;23;20006;-78
2022/04/14 08:45:38;;;;;;;22.52;9.10;;;16.50;93.30;;;;;;6244873;23;20000;-78
2022/04/14 08:48:05;;;;;;;20.10;9.32;;;16.60;93.30;;;;;;6244816;23;20383;-77
2022/04/14 08:50:32;;;;;;;21.52;9.48;;;16.80;93.00;;;;;;6244897;23;19996;-77
2022/04/14 08:52:59;;;;;;;19.73;9.23;;;16.60;93.10;;;;;;6244979;23;20000;-78
2022/04/14 08:55:25;;;;;;;24.58;9.27;;;16.70;93.60;;;;;;6244761;23;20030;-78
2022/04/14 08:57:52;;;;;;;25.08;9.50;;;16.70;93.30;;;;;;6245093;23;20000;-77
2022/04/14 09:00:18;;;;;;;22.77;9.38;;;16.60;93.50;;;;;;6246657;23;20000;-77
2022/04/14 09:02:46;;;;;;;35.83;10.57;;;16.70;93.20;;;;;;6246512;23;20030;-78
2022/04/14 09:05:17;;;;;;;23.15;8.88;;;16.90;93.30;;;;;;6246534;23;20000;-77
2022/04/14 09:07:50;;;;;;;26.27;8.57;;;17.00;93.10;;;;;;6246374;23;20054;-78
2022/04/14 09:10:17;;;;;;;22.50;8.45;;;17.10;92.20;;;;;;6246603;22;20057;-78
2022/04/14 09:12:43;;;;;;;18.85;8.35;;;17.00;92.00;;;;;;6246544;22;20000;-78
2022/04/14 09:15:09;;;;;;;20.95;9.00;;;17.00;93.20;;;;;;6246275;22;20012;-78
2022/04/14 09:17:35;;;;;;;18.40;7.88;;;17.10;93.30;;;;;;6246324;22;20007;-78
2022/04/14 09:20:41;;;;;;;22.80;8.98;;;17.20;92.40;;;;;;6246266;22;20000;-77
2022/04/14 09:23:21;;;;;;;23.70;7.68;;;17.20;91.30;;;;;;6246433;22;19996;-78
2022/04/14 09:26:04;;;;;;;22.20;9.23;;;17.10;91.90;;;;;;6246375;22;20331;-77
2022/04/14 09:28:30;;;;;;;23.15;8.50;;;17.10;91.70;;;;;;6246222;22;20424;-78
2022/04/14 09:31:04;;;;;;;24.85;9.10;;;17.40;91.50;;;;;;6246251;22;19992;-78
2022/04/14 09:33:35;;;;;;;21.83;9.05;;;17.50;91.70;;;;;;6246252;22;20004;-78
2022/04/14 09:36:16;;;;;;;24.90;9.23;;;17.50;90.40;;;;;;6246221;22;20020;-78
2022/04/14 09:38:58;;;;;;;24.45;9.68;;;17.50;91.30;;;;;;6246349;22;20027;-78
2022/04/14 09:41:32;;;;;;;22.90;9.60;;;17.50;90.50;;;;;;6246430;22;20000;-77
2022/04/14 09:43:59;;;;;;;29.98;10.27;;;17.50;91.20;;;;;;6246000;22;20034;-78
2022/04/14 09:46:26;;;;;;;31.05;10.85;;;17.60;90.30;;;;;;6246212;22;20011;-79
2022/04/14 09:49:18;;;;;;;23.63;9.80;;;17.50;91.00;;;;;;6244747;23;20015;-79
2022/04/14 09:51:48;;;;;;;23.08;9.05;;;17.60;90.30;;;;;;6240801;22;20008;-79
2022/04/14 09:54:19;;;;;;;22.27;10.15;;;17.60;90.00;;;;;;6246017;22;20007;-79
2022/04/14 09:56:49;;;;;;;21.17;7.60;;;17.70;90.70;;;;;;6246156;22;20011;-79
2022/04/14 09:59:17;;;;;;;20.48;7.90;;;17.90;90.10;;;;;;6246174;22;20305;-78
2022/04/14 10:01:43;;;;;;;22.88;8.32;;;18.30;89.00;;;;;;6246094;22;20003;-78
2022/04/14 10:04:31;;;;;;;20.92;7.75;;;18.40;85.90;;;;;;6245757;22;20004;-80
2022/04/14 10:07:09;;;;;;;29.65;9.50;;;18.40;87.90;;;;;;6245717;22;20008;-78
2022/04/14 10:09:39;;;;;;;22.58;7.60;;;18.50;89.50;;;;;;6246029;22;20000;-78
2022/04/14 10:12:25;;;;;;;21.25;8.07;;;18.60;90.00;;;;;;6245879;22;20432;-79
2022/04/14 10:15:04;;;;;;;21.27;7.90;;;18.80;83.80;;;;;;6245403;23;20012;-79
2022/04/14 10:17:40;;;;;;;24.20;7.60;;;18.80;83.50;;;;;;6245869;22;20016;-79
2022/04/14 10:20:10;;;;;;;18.42;7.32;;;18.90;81.80;;;;;;6245821;22;20075;-78
2022/04/14 10:22:37;;;;;;;13.27;7.03;;;18.90;82.90;;;;;;6245898;22;20007;-78
2022/04/14 10:25:04;;;;;;;16.27;7.05;;;19.00;83.00;;;;;;6244167;23;20513;-78
2022/04/14 10:27:33;;;;;;;17.73;7.25;;;19.10;82.20;;;;;;6245874;22;20005;-78
2022/04/14 10:30:00;;;;;;;24.27;7.28;;;19.20;78.90;;;;;;6245812;22;20004;-81
2022/04/14 10:32:26;;;;;;;16.73;7.20;;;19.20;77.90;;;;;;6245579;22;20004;-81
2022/04/14 10:34:52;;;;;;;14.38;5.75;;;19.20;76.60;;;;;;6245462;23;20082;-79
2022/04/14 10:37:38;;;;;;;14.02;6.13;;;19.50;75.00;;;;;;6243853;23;20431;-79
2022/04/14 10:40:04;;;;;;;18.92;6.28;;;19.60;75.40;;;;;;6245523;22;20367;-79
2022/04/14 10:42:31;;;;;;;13.02;4.30;;;19.60;72.10;;;;;;6245690;22;19996;-78
2022/04/14 10:44:57;;;;;;;11.63;5.53;;;19.70;70.60;;;;;;6245734;22;20004;-79
2022/04/14 10:47:53;;;;;;;14.82;6.07;;;19.90;70.20;;;;;;6245554;22;20004;-78
2022/04/14 10:50:27;;;;;;;13.38;6.50;;;19.90;66.90;;;;;;6220570;23;20008;-79
2022/04/14 10:53:13;;;;;;;14.73;5.88;;;20.10;64.10;;;;;;6245779;22;20061;-79
2022/04/14 10:55:46;;;;;;;13.10;5.65;;;20.10;67.90;;;;;;6245651;22;20027;-78
2022/04/14 10:58:27;;;;;;;14.00;4.70;;;20.40;64.80;;;;;;6245609;22;20404;-79
2022/04/14 11:00:54;;;;;;;15.77;4.82;;;20.50;66.00;;;;;;6245681;23;20000;-78
2022/04/14 11:03:40;;;;;;;9.95;5.10;;;20.60;65.40;;;;;;6245482;22;20019;-78
2022/04/14 11:06:05;;;;;;;14.00;4.97;;;20.70;66.40;;;;;;6245482;23;20012;-79
2022/04/14 11:08:32;;;;;;;15.40;5.53;;;20.90;63.00;;;;;;6243723;23;20317;-79
2022/04/14 11:11:14;;;;;;;13.30;6.10;;;20.90;64.60;;;;;;6245576;22;20062;-80
2022/04/14 11:13:55;;;;;;;;;;;20.90;62.30;;;;;;6245833;23;20000;-79
2022/04/14 11:16:47;;;;;;;17.92;5.82;;;21.10;65.90;;;;;;6244016;23;19911;-79
2022/04/14 11:19:19;;;;;;;;;;;21.20;62.70;;;;;;6245863;22;19999;-79
2022/04/14 11:24:40;;;;;;;15.73;6.25;;;21.30;61.40;;;;;;6245211;23;20019;-79
2022/04/14 11:27:13;;;;;;;14.13;6.10;;;21.50;62.50;;;;;;6245309;23;20011;-79
2022/04/14 11:29:39;;;;;;;14.85;5.85;;;21.50;62.50;;;;;;6245596;22;20439;-79
2022/04/14 11:32:06;;;;;;;11.75;5.65;;;21.60;61.50;;;;;;6245392;22;20487;-79
2022/04/14 11:34:32;;;;;;;13.15;6.07;;;21.70;60.70;;;;;;6245180;22;20004;-79
2022/04/14 11:36:59;;;;;;;14.25;6.03;;;21.80;59.10;;;;;;6245188;22;20000;-79
2022/04/14 11:39:25;;;;;;;16.55;6.93;;;21.90;59.40;;;;;;6245430;22;20062;-79
2022/04/14 11:41:53;;;;;;;13.55;6.38;;;21.80;57.90;;;;;;6246154;22;19996;-77
2022/04/14 11:44:30;;;;;;;14.88;6.07;;;21.80;58.30;;;;;;6247093;22;20007;-79
2022/04/14 11:46:59;;;;;;;24.30;6.57;;;21.80;57.40;;;;;;6247397;22;20034;-79
2022/04/14 11:49:32;;;;;;;14.07;6.85;;;21.90;57.50;;;;;;6247270;22;20079;-79
2022/04/14 11:52:00;;;;;;;18.80;7.72;;;22.00;58.00;;;;;;6245683;23;20046;-79
2022/04/14 11:54:31;;;;;;;13.18;7.10;;;22.00;57.20;;;;;;6246931;22;20004;-79
2022/04/14 11:57:07;;;;;;;15.05;6.65;;;22.10;57.10;;;;;;6247132;22;20058;-79
2022/04/14 11:59:32;;;;;;;14.27;6.32;;;22.20;57.70;;;;;;6247332;22;20546;-80
2022/04/14 12:02:22;;;;;;;17.52;6.93;;;22.40;57.70;;;;;;6247267;23;20003;-79
2022/04/14 12:04:51;;;;;;;19.80;6.80;;;22.60;57.50;;;;;;6246894;22;20000;-79
2022/04/14 12:07:18;;;;;;;15.25;6.43;;;22.60;56.80;;;;;;6246737;22;20000;-79
2022/04/14 12:09:45;;;;;;;13.73;5.97;;;22.80;56.70;;;;;;6246891;22;20000;-79
2022/04/14 12:12:15;;;;;;;17.55;6.07;;;22.90;56.00;;;;;;6247133;22;20004;-79
2022/04/14 12:14:52;;;;;;;15.43;6.88;;;22.90;54.90;;;;;;6246698;22;20019;-79
2022/04/14 12:17:22;;;;;;;17.75;6.88;;;22.90;54.90;;;;;;6246711;22;20079;-79
2022/04/14 12:19:59;;;;;;;17.90;6.78;;;22.90;54.20;;;;;;6246905;22;20000;-79
2022/04/14 12:22:29;;;;;;;13.75;7.13;;;23.10;55.90;;;;;;6247030;22;20471;-80
2022/04/14 12:24:56;;;;;;;18.27;7.00;;;23.10;53.70;;;;;;6246967;22;20015;-79
2022/04/14 12:27:27;;;;;;;21.10;7.10;;;23.30;53.90;;;;;;6246921;22;20074;-80
2022/04/14 12:30:02;;;;;;;18.45;7.47;;;23.30;54.70;;;;;;6246703;22;20004;-79
2022/04/14 12:32:31;;;;;;;11.70;6.82;;;23.40;53.90;;;;;;6246816;22;20000;-79
2022/04/14 12:34:57;;;;;;;16.17;6.85;;;23.50;53.60;;;;;;6246565;23;20074;-79
2022/04/14 12:37:41;;;;;;;12.27;6.10;;;23.60;53.80;;;;;;6246948;22;20024;-79
2022/04/14 12:40:16;;;;;;;11.50;5.82;;;23.80;53.50;;;;;;6245097;23;20000;-79
2022/04/14 12:42:42;;;;;;;16.75;6.50;;;23.90;52.00;;;;;;6246137;22;20078;-79
2022/04/14 12:45:13;;;;;;;14.48;6.90;;;23.80;51.70;;;;;;6246547;22;20379;-79
2022/04/14 12:47:47;;;;;;;11.40;6.22;;;23.80;51.60;;;;;;6245282;23;20083;-79
2022/04/14 12:50:23;;;;;;;18.67;7.32;;;23.90;53.60;;;;;;6246906;22;20462;-79
2022/04/14 12:52:56;;;;;;;18.80;5.60;;;24.00;52.20;;;;;;6245841;22;20027;-79
2022/04/14 12:55:27;;;;;;;15.77;6.38;;;24.00;51.60;;;;;;6246499;22;20027;-79
2022/04/14 12:58:13;;;;;;;15.73;6.13;;;24.00;52.30;;;;;;6246769;22;19996;-80
2022/04/14 13:00:40;;;;;;;12.00;6.30;;;24.20;52.00;;;;;;6246775;22;19996;-79
2022/04/14 13:03:13;;;;;;;17.00;6.05;;;24.30;49.90;;;;;;6246711;22;20014;-79
2022/04/14 13:05:41;;;;;;;15.40;6.25;;;24.20;50.00;;;;;;6243934;23;20004;-79
2022/04/14 13:08:07;;;;;;;15.50;5.57;;;24.40;52.10;;;;;;6246106;22;20068;-79
2022/04/14 13:10:38;;;;;;;17.48;7.15;;;24.60;53.10;;;;;;6245938;22;20008;-79
2022/04/14 13:13:04;;;;;;;14.70;5.82;;;24.50;50.90;;;;;;6246046;22;19997;-79
2022/04/14 13:15:31;;;;;;;14.07;6.43;;;24.50;50.40;;;;;;6245349;22;20447;-79
2022/04/14 13:17:58;;;;;;;17.52;6.25;;;24.60;52.30;;;;;;6246283;22;20000;-79
2022/04/14 13:20:32;;;;;;;22.17;6.32;;;24.70;51.60;;;;;;6245174;22;20006;-79
2022/04/14 13:22:58;;;;;;;20.77;7.25;;;24.60;50.40;;;;;;6244615;22;20428;-79
2022/04/14 13:25:25;;;;;;;12.88;5.63;;;24.70;51.30;;;;;;6245320;22;20007;-79
2022/04/14 13:27:51;;;;;;;16.90;6.85;;;24.70;50.60;;;;;;6245927;22;20000;-79
2022/04/14 13:30:17;;;;;;;15.90;6.68;;;24.80;50.10;;;;;;6245744;23;20439;-79
2022/04/14 13:32:43;;;;;;;14.35;6.28;;;24.80;50.00;;;;;;6246146;22;20004;-79
2022/04/14 13:35:09;;;;;;;15.38;6.43;;;24.70;49.80;;;;;;6244287;23;20072;-79
2022/04/14 13:37:35;;;;;;;17.85;7.28;;;24.70;50.20;;;;;;6246179;22;20020;-79
2022/04/14 13:40:04;;;;;;;12.65;6.93;;;24.80;52.20;;;;;;6246105;22;20004;-78
2022/04/14 13:42:31;;;;;;;11.23;5.97;;;25.00;49.90;;;;;;6245695;22;20000;-78
2022/04/14 13:44:57;;;;;;;13.85;5.68;;;25.00;48.10;;;;;;6245736;22;20004;-78
2022/04/14 13:47:24;;;;;;;14.43;6.13;;;24.90;48.10;;;;;;6245899;22;20004;-78
2022/04/14 13:49:49;;;;;;;14.88;6.20;;;25.00;48.90;;;;;;6244997;22;20004;-79
2022/04/14 13:52:15;;;;;;;18.58;6.90;;;25.00;50.10;;;;;;6244075;23;20066;-79
2022/04/14 13:54:41;;;;;;;16.23;7.10;;;25.10;49.70;;;;;;6245496;22;20546;-79
2022/04/14 13:57:07;;;;;;;13.45;6.68;;;25.30;50.10;;;;;;6243800;23;20000;-78
2022/04/14 13:59:33;;;;;;;13.45;6.32;;;25.40;49.10;;;;;;6245309;23;20019;-79
2022/04/14 14:02:01;;;;;;;13.95;6.22;;;25.50;48.70;;;;;;6245745;22;20000;-79
2022/04/14 14:04:27;;;;;;;16.00;6.60;;;25.60;49.00;;;;;;6245774;22;20110;-79
2022/04/14 14:06:56;;;;;;;16.30;7.55;;;25.30;47.70;;;;;;6246096;23;20024;-79
2022/04/14 14:09:22;;;;;;;15.63;6.72;;;25.50;50.30;;;;;;6246076;23;20003;-79
2022/04/14 14:11:48;;;;;;;19.73;6.45;;;25.40;48.70;;;;;;6245918;22;20058;-79
2022/04/14 14:14:14;;;;;;;18.48;7.47;;;25.60;49.60;;;;;;6245627;22;20094;-79
2022/04/14 14:16:39;;;;;;;16.25;7.30;;;25.40;50.00;;;;;;6245790;22;20024;-79
2022/04/14 14:19:08;;;;;;;16.45;7.15;;;25.40;50.20;;;;;;6245688;22;20028;-79
2022/04/14 14:21:35;;;;;;;19.48;8.77;;;25.50;48.60;;;;;;6245230;23;20007;-79
2022/04/14 14:24:01;;;;;;;18.13;6.80;;;25.40;48.10;;;;;;6245424;22;20004;-79
2022/04/14 14:26:26;;;;;;;12.45;6.63;;;25.40;47.80;;;;;;6245546;22;19996;-80
2022/04/14 14:28:52;;;;;;;14.43;7.35;;;25.30;48.30;;;;;;6245509;22;20066;-79
2022/04/14 14:31:22;;;;;;;17.73;8.50;;;25.30;49.30;;;;;;6243396;23;20004;-79
2022/04/14 14:33:48;;;;;;;16.45;7.07;;;25.30;48.00;;;;;;6245492;22;20057;-79
2022/04/14 14:36:14;;;;;;;14.32;6.15;;;25.30;48.00;;;;;;6244237;23;20479;-79
2022/04/14 14:38:40;;;;;;;15.93;6.00;;;25.20;48.00;;;;;;6244281;23;20000;-79
2022/04/14 14:41:06;;;;;;;15.48;7.57;;;25.30;48.60;;;;;;6245868;22;20003;-80
2022/04/14 14:43:33;;;;;;;12.88;7.07;;;25.30;48.30;;;;;;6245447;22;20008;-79
2022/04/14 14:45:59;;;;;;;17.52;6.43;;;25.30;48.10;;;;;;6245613;22;20003;-79
2022/04/14 14:48:25;;;;;;;13.02;6.72;;;25.20;47.60;;;;;;6245476;22;20000;-79
2022/04/14 14:50:51;;;;;;;15.25;7.70;;;25.10;48.60;;;;;;6244001;23;20051;-79
2022/04/14 14:53:17;;;;;;;15.38;8.02;;;25.00;47.40;;;;;;6243671;23;20445;-82
2022/04/14 14:55:43;;;;;;;15.18;6.15;;;25.00;49.40;;;;;;6244856;22;20002;-79
2022/04/14 15:00:53;;;;;;;14.10;6.20;;;25.10;48.70;;;;;;6245438;23;20011;-78
2022/04/14 15:03:20;;;;;;;22.42;7.20;;;25.30;48.30;;;;;;6243773;23;20000;-78
2022/04/14 15:05:46;;;;;;;14.05;5.90;;;25.30;48.20;;;;;;6245635;22;20122;-78
2022/04/14 15:08:12;;;;;;;14.70;6.28;;;25.30;48.60;;;;;;6245597;22;20039;-78
2022/04/14 15:10:38;;;;;;;15.30;7.07;;;25.20;46.80;;;;;;6243979;23;20428;-79
2022/04/14 15:13:07;;;;;;;16.38;6.80;;;25.20;48.00;;;;;;6245511;22;20000;-79
2022/04/14 15:15:33;;;;;;;14.35;6.95;;;25.40;47.60;;;;;;6243724;23;20087;-79
2022/04/14 15:18:07;;;;;;;14.25;6.63;;;25.60;48.40;;;;;;6245732;22;20458;-79
2022/04/14 15:20:35;;;;;;;16.80;7.03;;;25.60;47.50;;;;;;6245750;22;20007;-78
2022/04/14 15:23:03;;;;;;;13.70;6.18;;;25.70;47.30;;;;;;6245797;22;19996;-78
2022/04/14 15:25:32;;;;;;;14.90;5.55;;;25.90;46.50;;;;;;6245517;22;20055;-78
2022/04/14 15:27:57;;;;;;;11.48;6.15;;;25.90;46.70;;;;;;6245754;22;20151;-78
2022/04/14 15:30:24;;;;;;;15.02;7.32;;;25.70;46.10;;;;;;6245727;22;20439;-79
2022/04/14 15:32:49;;;;;;;16.80;6.60;;;25.70;47.30;;;;;;6245797;22;20004;-79
2022/04/14 15:35:15;;;;;;;14.52;6.25;;;25.80;47.60;;;;;;6243867;23;20079;-79
2022/04/14 15:37:41;;;;;;;17.08;6.80;;;25.90;47.70;;;;;;6245233;22;20010;-79
2022/04/14 15:40:07;;;;;;;17.13;7.28;;;26.00;47.50;;;;;;6245542;22;20451;-79
2022/04/14 15:42:34;;;;;;;17.27;6.85;;;25.80;45.50;;;;;;6245515;23;20083;-79
2022/04/14 15:45:00;;;;;;;13.07;5.97;;;25.80;45.90;;;;;;6245566;22;20027;-79
2022/04/14 15:47:26;;;;;;;18.48;6.80;;;26.00;46.60;;;;;;6245733;22;20335;-79
2022/04/14 15:49:52;;;;;;;15.13;6.25;;;26.40;47.70;;;;;;6245502;23;20071;-79
2022/04/14 15:52:17;;;;;;;15.32;6.82;;;26.70;46.80;;;;;;6245517;22;20004;-79
2022/04/14 15:54:43;;;;;;;14.50;6.50;;;27.00;47.10;;;;;;6245348;22;20001;-79
2022/04/14 15:57:09;;;;;;;18.48;7.70;;;27.10;46.20;;;;;;6245320;23;20053;-79
2022/04/14 15:59:38;;;;;;;18.88;7.95;;;27.10;44.90;;;;;;6245536;23;20035;-79
2022/04/14 16:02:04;;;;;;;18.02;7.00;;;27.30;45.10;;;;;;6245393;23;19993;-78
2022/04/14 16:04:30;;;;;;;18.80;7.55;;;27.40;45.60;;;;;;6245514;23;20037;-79
2022/04/14 16:06:56;;;;;;;17.50;7.57;;;27.40;44.30;;;;;;6245400;23;20011;-79
2022/04/14 16:09:21;;;;;;;14.05;6.65;;;27.60;45.20;;;;;;6245257;23;20074;-79
2022/04/14 16:12:06;;;;;;;14.40;6.88;;;27.60;43.60;;;;;;6245233;23;20004;-79
2022/04/14 16:14:32;;;;;;;15.80;7.15;;;27.80;43.60;;;;;;6244968;23;20016;-79
2022/04/14 16:16:58;;;;;;;18.02;6.22;;;27.60;43.90;;;;;;6245197;23;20395;-79
2022/04/14 16:19:24;;;;;;;18.20;7.05;;;27.80;44.80;;;;;;6245177;23;19996;-79
2022/04/14 16:21:50;;;;;;;16.45;6.68;;;27.70;43.80;;;;;;6245163;23;20107;-79
2022/04/14 16:24:18;;;;;;;19.15;8.13;;;27.70;44.00;;;;;;6245292;23;20451;-79
2022/04/14 16:26:47;;;;;;;18.17;7.57;;;27.70;44.00;;;;;;6245139;23;20440;-79
2022/04/14 16:29:14;;;;;;;14.18;7.18;;;27.80;43.60;;;;;;6245154;23;20042;-79
2022/04/14 16:31:39;;;;;;;16.40;6.57;;;27.90;43.70;;;;;;6245324;23;20032;-79
2022/04/14 16:34:05;;;;;;;13.15;6.25;;;27.90;43.60;;;;;;6245071;23;20457;-79
2022/04/14 16:36:31;;;;;;;17.55;7.03;;;27.80;43.20;;;;;;6218298;23;20008;-79
2022/04/14 16:38:57;;;;;;;18.02;7.00;;;27.90;43.00;;;;;;6245013;23;20483;-79
2022/04/14 16:41:22;;;;;;;18.23;7.15;;;27.80;42.70;;;;;;6244979;23;20305;-79
2022/04/14 16:43:48;;;;;;;19.55;7.15;;;27.80;43.30;;;;;;6244612;23;20071;-79
2022/04/14 16:46:14;;;;;;;24.25;7.50;;;28.00;44.10;;;;;;6245147;23;20011;-79
2022/04/14 16:48:42;;;;;;;15.65;6.85;;;28.00;44.00;;;;;;6245028;23;20390;-79
2022/04/14 16:51:12;;;;;;;21.42;7.85;;;28.10;43.70;;;;;;6245085;23;20007;-79
2022/04/14 16:53:38;;;;;;;15.80;6.90;;;28.10;43.80;;;;;;6217574;23;20091;-79
2022/04/14 16:56:05;;;;;;;23.08;7.88;;;27.80;43.50;;;;;;6245121;22;20436;-79
2022/04/14 16:58:36;;;;;;;17.23;6.30;;;27.40;44.00;;;;;;6244749;22;20039;-79
2022/04/14 17:01:03;;;;;;;;;;;27.20;44.20;;;;;;6245477;23;20065;-79
2022/04/14 17:03:29;;;;;;;22.85;6.53;;;26.70;44.50;;;;;;6244770;22;20316;-79
2022/04/14 17:05:55;;;;;;;14.32;6.72;;;26.50;45.30;;;;;;6244788;22;20003;-78
2022/04/14 17:08:20;;;;;;;12.70;5.65;;;26.30;45.80;;;;;;6244972;22;19996;-79
2022/04/14 17:10:46;;;;;;;16.75;6.82;;;26.10;46.50;;;;;;6244782;23;20000;-79
2022/04/14 17:13:12;;;;;;;15.25;6.00;;;25.60;46.80;;;;;;6244465;23;20000;-79
2022/04/14 17:15:38;;;;;;;15.15;6.25;;;25.30;47.40;;;;;;6244571;22;20632;-79
2022/04/14 17:18:04;;;;;;;16.77;6.68;;;24.90;47.90;;;;;;6244650;22;20007;-79
2022/04/14 17:20:31;;;;;;;15.55;7.10;;;24.60;48.30;;;;;;6244849;22;20000;-80
2022/04/14 17:25:41;;;;;;;16.42;5.78;;;24.00;50.70;;;;;;6244643;23;20059;-72
2022/04/14 17:28:07;;;;;;;16.67;6.03;;;23.70;51.20;;;;;;6244329;23;20007;-72
2022/04/14 17:30:32;;;;;;;19.38;6.68;;;23.40;52.00;;;;;;6242930;23;20004;-72
2022/04/14 17:33:00;;;;;;;12.95;6.60;;;23.20;52.30;;;;;;6244785;23;20007;-72
2022/04/14 17:35:26;;;;;;;15.80;6.10;;;23.00;52.60;;;;;;6245425;22;20054;-72
2022/04/14 17:37:52;;;;;;;16.35;5.60;;;22.80;53.20;;;;;;6245658;22;20003;-72
2022/04/14 17:40:18;;;;;;;16.23;7.10;;;22.60;53.60;;;;;;6245313;23;20000;-72
2022/04/14 17:42:45;;;;;;;21.02;7.80;;;22.40;54.40;;;;;;6245542;23;20432;-72
2022/04/14 17:45:12;;;;;;;19.90;8.30;;;22.10;55.30;;;;;;6245678;22;20476;-72
2022/04/14 17:47:38;;;;;;;15.57;6.70;;;22.00;55.80;;;;;;6245963;22;20031;-73
2022/04/14 17:50:05;;;;;;;14.55;6.95;;;21.80;56.40;;;;;;6245829;22;20046;-72
2022/04/14 17:52:31;;;;;;;13.45;7.43;;;21.60;57.00;;;;;;6244540;22;20439;-72
2022/04/14 17:54:57;;;;;;;14.50;8.30;;;21.50;57.60;;;;;;6243756;22;20000;-72
2022/04/14 17:57:23;;;;;;;17.63;7.20;;;21.30;57.90;;;;;;6244051;22;20008;-72
2022/04/14 17:59:49;;;;;;;10.32;5.80;;;21.20;58.50;;;;;;6243276;22;20004;-72
2022/04/14 18:02:19;;;;;;;10.98;5.15;;;21.00;59.10;;;;;;6243595;22;20416;-72
2022/04/14 18:04:45;;;;;;;14.52;6.55;;;20.80;59.50;;;;;;6243556;22;20546;-72
2022/04/14 18:07:11;;;;;;;12.77;5.82;;;20.70;59.70;;;;;;6242503;23;20004;-72
2022/04/14 18:09:37;;;;;;;12.82;5.93;;;20.60;60.20;;;;;;6244925;22;20000;-72
2022/04/14 18:12:03;;;;;;;13.52;6.18;;;20.50;60.50;;;;;;6217783;23;20011;-72
2022/04/14 18:14:29;;;;;;;10.88;5.18;;;20.40;61.00;;;;;;6244830;22;20074;-72
2022/04/14 18:16:55;;;;;;;14.00;6.32;;;20.30;62.30;;;;;;6243728;23;20004;-72
2022/04/14 18:19:21;;;;;;;15.18;5.75;;;20.20;62.10;;;;;;6246398;22;20000;-72
2022/04/14 18:21:47;;;;;;;16.48;5.68;;;20.00;62.50;;;;;;6244346;23;20004;-72
2022/04/14 18:24:13;;;;;;;16.77;5.53;;;19.90;62.90;;;;;;6245645;22;20000;-72
2022/04/14 18:26:39;;;;;;;15.00;5.50;;;19.70;63.30;;;;;;6245724;22;20004;-72
2022/04/14 18:29:05;;;;;;;16.90;5.47;;;19.60;63.80;;;;;;6246070;23;20086;-72
2022/04/14 18:31:31;;;;;;;11.75;5.45;;;19.60;64.10;;;;;;6245954;22;20047;-72
2022/04/14 18:34:00;;;;;;;12.70;5.65;;;19.50;64.50;;;;;;6246015;22;20004;-72
2022/04/14 18:36:25;;;;;;;13.52;6.63;;;19.40;65.00;;;;;;6245718;22;20011;-72
2022/04/14 18:38:53;;;;;;;16.92;6.15;;;19.30;65.20;;;;;;6245522;23;20328;-72
2022/04/14 18:41:19;;;;;;;11.73;5.63;;;19.20;65.50;;;;;;6243874;23;20079;-72
2022/04/14 18:43:44;;;;;;;13.57;5.82;;;19.20;65.60;;;;;;6245500;22;20331;-72
2022/04/14 18:46:10;;;;;;;15.98;6.07;;;19.10;66.50;;;;;;6245588;23;20000;-72
2022/04/14 18:48:36;;;;;;;21.13;6.88;;;19.10;65.80;;;;;;6244940;23;20030;-72
2022/04/14 18:51:02;;;;;;;16.15;6.50;;;19.10;66.00;;;;;;6244967;22;20004;-72
2022/04/14 18:53:27;;;;;;;16.95;5.97;;;19.00;66.10;;;;;;6244726;22;20007;-72
2022/04/14 18:55:53;;;;;;;20.00;6.78;;;18.90;66.50;;;;;;6244983;23;20001;-72
2022/04/14 18:58:19;;;;;;;17.02;7.20;;;18.80;66.80;;;;;;6217445;23;20722;-72
2022/04/14 19:00:45;;;;;;;19.77;8.18;;;18.70;67.10;;;;;;6244867;23;20337;-72
2022/04/14 19:03:13;;;;;;;21.55;7.72;;;18.60;67.40;;;;;;6244963;23;20312;-72
2022/04/14 19:05:41;;;;;;;21.23;7.55;;;18.50;67.50;;;;;;6243383;23;20004;-73
2022/04/14 19:08:09;;;;;;;19.90;7.30;;;18.50;67.50;;;;;;6244913;22;20023;-72
2022/04/14 19:10:35;;;;;;;21.77;6.55;;;18.50;67.50;;;;;;6244263;22;20000;-72
2022/04/14 19:13:01;;;;;;;19.65;7.15;;;18.40;67.90;;;;;;6243252;23;20015;-72
2022/04/14 19:15:26;;;;;;;18.35;7.18;;;18.40;68.50;;;;;;6217542;23;20027;-72
2022/04/14 19:17:52;;;;;;;21.67;7.15;;;18.30;68.50;;;;;;6244650;23;20087;-72
2022/04/14 19:20:18;;;;;;;15.68;6.70;;;18.20;69.00;;;;;;6244486;23;20003;-72
2022/04/14 19:22:44;;;;;;;19.65;7.70;;;18.10;69.20;;;;;;6244642;23;20000;-72
2022/04/14 19:25:10;;;;;;;17.10;6.43;;;18.10;69.20;;;;;;6243911;23;20000;-72
2022/04/14 19:27:38;;;;;;;22.90;7.65;;;18.10;69.20;;;;;;6217621;23;20019;-72
2022/04/14 19:30:06;;;;;;;19.70;6.65;;;18.00;69.60;;;;;;6244911;23;20000;-72
2022/04/14 19:32:32;;;;;;;20.02;7.43;;;18.10;69.70;;;;;;6217619;23;20004;-72
2022/04/14 19:34:57;;;;;;;21.83;7.80;;;18.00;69.90;;;;;;6244381;23;20001;-73
2022/04/14 19:37:23;;;;;;;17.50;7.15;;;17.90;70.30;;;;;;6244279;23;20004;-72
2022/04/14 19:39:49;;;;;;;20.85;8.10;;;17.90;70.70;;;;;;6244877;23;20443;-72
2022/04/14 19:42:15;;;;;;;16.27;7.13;;;17.80;71.10;;;;;;6245158;23;19996;-72
2022/04/14 19:44:41;;;;;;;15.30;7.28;;;17.70;71.40;;;;;;6244768;23;20008;-72
2022/04/14 19:47:07;;;;;;;18.00;6.35;;;17.70;71.70;;;;;;6244979;23;20071;-72
2022/04/14 19:49:33;;;;;;;18.70;7.30;;;17.70;71.90;;;;;;6245176;23;20024;-72
2022/04/14 19:52:02;;;;;;;17.48;7.00;;;17.60;72.10;;;;;;6217991;23;20103;-72
2022/04/14 19:54:28;;;;;;;20.10;7.22;;;17.60;72.30;;;;;;6243024;23;20004;-72
2022/04/14 19:56:53;;;;;;;16.05;6.50;;;17.50;72.70;;;;;;6244613;23;20001;-72
2022/04/14 19:59:19;;;;;;;19.48;7.35;;;17.50;73.00;;;;;;6244696;23;20022;-72
2022/04/14 20:01:46;;;;;;;22.05;7.40;;;17.40;73.10;;;;;;6217686;23;20030;-72
2022/04/14 20:04:12;;;;;;;17.13;6.53;;;17.40;73.30;;;;;;6246500;23;20007;-72
2022/04/14 20:06:37;;;;;;;19.67;7.65;;;17.30;73.50;;;;;;6246500;23;20004;-72
2022/04/14 20:09:03;;;;;;;18.30;7.60;;;17.30;73.70;;;;;;6219773;23;20008;-72